Map

Track Data

SID SEASON NUMBER BASIN SUBBASIN NAME ISO_TIME NATURE LAT LON WMO_WIND WMO_PRES WMO_AGENCY TRACK_TYPE DIST2LAND LANDFALL IFLAG USA_AGENCY USA_ATCF_ID USA_LAT USA_LON USA_RECORD USA_STATUS USA_WIND USA_PRES USA_SSHS USA_R34_NE USA_R34_SE USA_R34_SW USA_R34_NW USA_R50_NE USA_R50_SE USA_R50_SW USA_R50_NW USA_R64_NE USA_R64_SE USA_R64_SW USA_R64_NW USA_POCI USA_ROCI USA_RMW USA_EYE TOKYO_LAT TOKYO_LON TOKYO_GRADE TOKYO_WIND TOKYO_PRES TOKYO_R50_DIR TOKYO_R50_LONG TOKYO_R50_SHORT TOKYO_R30_DIR TOKYO_R30_LONG TOKYO_R30_SHORT TOKYO_LAND CMA_LAT CMA_LON CMA_CAT CMA_WIND CMA_PRES HKO_LAT HKO_LON HKO_CAT HKO_WIND HKO_PRES NEWDELHI_LAT NEWDELHI_LON NEWDELHI_GRADE NEWDELHI_WIND NEWDELHI_PRES NEWDELHI_CI NEWDELHI_DP NEWDELHI_POCI REUNION_LAT REUNION_LON REUNION_TYPE REUNION_WIND REUNION_PRES REUNION_TNUM REUNION_CI REUNION_RMW REUNION_R34_NE REUNION_R34_SE REUNION_R34_SW REUNION_R34_NW REUNION_R50_NE REUNION_R50_SE REUNION_R50_SW REUNION_R50_NW REUNION_R64_NE REUNION_R64_SE REUNION_R64_SW REUNION_R64_NW BOM_LAT BOM_LON BOM_TYPE BOM_WIND BOM_PRES BOM_TNUM BOM_CI BOM_RMW BOM_R34_NE BOM_R34_SE BOM_R34_SW BOM_R34_NW BOM_R50_NE BOM_R50_SE BOM_R50_SW BOM_R50_NW BOM_R64_NE BOM_R64_SE BOM_R64_SW BOM_R64_NW BOM_ROCI BOM_POCI BOM_EYE BOM_POS_METHOD BOM_PRES_METHOD NADI_LAT NADI_LON NADI_CAT NADI_WIND NADI_PRES WELLINGTON_LAT WELLINGTON_LON WELLINGTON_WIND WELLINGTON_PRES DS824_LAT DS824_LON DS824_STAGE DS824_WIND DS824_PRES TD9636_LAT TD9636_LON TD9636_STAGE TD9636_WIND TD9636_PRES TD9635_LAT TD9635_LON TD9635_WIND TD9635_PRES TD9635_ROCI NEUMANN_LAT NEUMANN_LON NEUMANN_CLASS NEUMANN_WIND NEUMANN_PRES MLC_LAT MLC_LON MLC_CLASS MLC_WIND MLC_PRES USA_GUST BOM_GUST BOM_GUST_PER REUNION_GUST REUNION_GUST_PER USA_SEAHGT USA_SEARAD_NE USA_SEARAD_SE USA_SEARAD_SW USA_SEARAD_NW STORM_SPEED STORM_DIR
1910062S16128 1910 12 SI WA NOT_NAMED 1910-03-02 12:00:00 NR -15.6000 128.300 main 0 0 __________O___ -1 -15.6000 128.300 7 2 147
1910062S16128 1910 12 SI WA NOT_NAMED 1910-03-02 15:00:00 NR -15.6812 128.353 main 0 0 __________P___ -1 -15.6812 128.353 7 2 148
1910062S16128 1910 12 SI WA NOT_NAMED 1910-03-02 18:00:00 NR -15.7899 128.425 main 0 0 __________P___ -1 -15.7899 128.425 7 3 148
1910062S16128 1910 12 SI WA NOT_NAMED 1910-03-02 21:00:00 NR -15.9537 128.534 main 0 0 __________P___ -1 -15.9537 128.534 7 5 147
1910062S16128 1910 12 SI WA NOT_NAMED 1910-03-03 00:00:00 NR -16.2000 128.700 main 0 0 __________O___ -1 -16.2000 128.700 7 7 147
1910062S16128 1910 12 SI WA NOT_NAMED 1910-03-03 03:00:00 NR -16.5475 128.936 main 0 0 __________P___ -1 -16.5475 128.936 7 9 146
1910062S16128 1910 12 SI WA NOT_NAMED 1910-03-03 06:00:00 NR -16.9799 129.238 main 0 0 __________P___ -1 -16.9799 129.238 7 11 146
1910062S16128 1910 12 SI WA NOT_NAMED 1910-03-03 09:00:00 NR -17.4723 129.596 main 0 0 __________P___ -1 -17.4723 129.596 7 13 145
1910062S16128 1910 12 SI WA NOT_NAMED 1910-03-03 12:00:00 NR -18.0000 130.000 main 0 0 __________O___ -1 -18.0000 130.000 7 13 144
1910062S16128 1910 12 SI WA NOT_NAMED 1910-03-03 15:00:00 NR -18.5411 130.404 main 0 0 __________P___ -1 -18.5411 130.404 7 14 144
1910062S16128 1910 12 SI WA NOT_NAMED 1910-03-03 18:00:00 NR -19.1067 130.853 main 0 0 __________P___ -1 -19.1067 130.853 7 14 142
1910062S16128 1910 12 SI WA NOT_NAMED 1910-03-03 21:00:00 NR -19.6690 131.351 main 0 0 __________P___ -1 -19.6690 131.351 7 15 138
1910062S16128 1910 12 SI WA NOT_NAMED 1910-03-04 00:00:00 NR -20.2000 131.900 main 0 0 __________O___ -1 -20.2000 131.900 7 15 133
1910062S16128 1910 12 SI WA NOT_NAMED 1910-03-04 03:00:00 NR -20.6895 132.504 main 0 0 __________P___ -1 -20.6895 132.504 7 15 129
1910062S16128 1910 12 SI WA NOT_NAMED 1910-03-04 06:00:00 NR -21.1402 133.155 main 0 0 __________P___ -1 -21.1402 133.155 7 15 125
1910062S16128 1910 12 SI WA NOT_NAMED 1910-03-04 09:00:00 NR -21.5457 133.829 main 0 0 __________P___ -1 -21.5457 133.829 7 15 121
1910062S16128 1910 12 SI WA NOT_NAMED 1910-03-04 12:00:00 NR -21.9000 134.500 main 0 0 __________O___ -1 -21.9000 134.500 7 13 113
1910062S16128 1910 12 SP EA NOT_NAMED 1910-03-04 15:00:00 NR -22.0390 135.066 main 0 0 __________P___ -1 -22.0390 135.066 7 11 104
1910062S16128 1910 12 SP EA NOT_NAMED 1910-03-04 18:00:00 NR -22.1556 135.633 main 0 0 __________P___ -1 -22.1556 135.633 7 12 108
1910062S16128 1910 12 SP EA NOT_NAMED 1910-03-04 21:00:00 NR -22.3945 136.258 main 0 0 __________P___ -1 -22.3945 136.258 7 15 121
1910062S16128 1910 12 SP EA NOT_NAMED 1910-03-05 00:00:00 NR -22.9000 137.000 main 0 0 __________O___ -1 -22.9000 137.000 7 22 129
1910062S16128 1910 12 SP EA NOT_NAMED 1910-03-05 03:00:00 NR -23.7486 138.103 main 0 0 __________P___ -1 -23.7486 138.103 7 29 133
1910062S16128 1910 12 SP EA NOT_NAMED 1910-03-05 06:00:00 NR -24.8771 139.320 main 0 0 __________P___ -1 -24.8771 139.320 7 33 139
1910062S16128 1910 12 SP EA NOT_NAMED 1910-03-05 09:00:00 NR -26.2404 140.479 main 0 0 __________P___ -1 -26.2404 140.479 7 35 147
1910062S16128 1910 12 SP EA NOT_NAMED 1910-03-05 12:00:00 NR -27.8000 141.400 main 0 0 __________O___ -1 -27.8000 141.400 7 37 160
1910062S16128 1910 12 SP EA NOT_NAMED 1910-03-05 15:00:00 NR -29.7116 141.874 main 0 0 __________P___ -1 -29.7116 141.874 7 40 172
1910062S16128 1910 12 SP EA NOT_NAMED 1910-03-05 18:00:00 NR -31.7743 142.075 main 0 0 __________P___ -1 -31.7743 142.075 7 40 177
1910062S16128 1910 12 SP EA NOT_NAMED 1910-03-05 21:00:00 NR -33.7253 142.087 main 0 0 __________P___ -1 -33.7253 142.087 7 35 181
1910062S16128 1910 12 SP EA NOT_NAMED 1910-03-06 00:00:00 NR -35.3000 142.000 main 0 0 __________O___ -1 -35.3000 142.000 7 25 183
1910062S16128 1910 12 SP EA NOT_NAMED 1910-03-06 03:00:00 NR -36.1696 141.949 main 0 0 __________P___ -1 -36.1696 141.949 7 14 186
1910062S16128 1910 12 SP EA NOT_NAMED 1910-03-06 06:00:00 NR -36.6473 141.828 main 0 0 __________P___ -1 -36.6473 141.828 7 8 196
1910062S16128 1910 12 SP EA NOT_NAMED 1910-03-06 09:00:00 NR -36.9016 141.694 main 0 0 __________P___ -1 -36.9016 141.694 7 5 202
1910062S16128 1910 12 SP EA NOT_NAMED 1910-03-06 12:00:00 NR -37.1000 141.600 main 0 0 __________O___ -1 -37.1000 141.600 7 6 197
1910062S16128 1910 12 SP EA NOT_NAMED 1910-03-06 15:00:00 NR -37.5049 141.458 main 0 0 __________P___ -1 -37.5049 141.458 7 8 192
1910062S16128 1910 12 SP EA NOT_NAMED 1910-03-06 18:00:00 NR -37.8878 141.390 main 0 0 __________P___ -1 -37.8878 141.390 7 7 177
1910062S16128 1910 12 SP EA NOT_NAMED 1910-03-06 21:00:00 NR -38.2521 141.501 main 0 0 __________P___ -1 -38.2521 141.501 7 8 151
1910062S16128 1910 12 SP EA NOT_NAMED 1910-03-07 00:00:00 NR -38.6000 141.900 main 28 23 __________O___ -1 -38.6000 141.900 7 12 127
1910062S16128 1910 12 SP EA NOT_NAMED 1910-03-07 03:00:00 NR -38.9601 142.725 main 47 33 __________P___ -1 -38.9601 142.725 7 17 115
1910062S16128 1910 12 SP EA NOT_NAMED 1910-03-07 06:00:00 NR -39.2913 143.841 main 47 47 __________P___ -1 -39.2913 143.841 7 19 108
1910062S16128 1910 12 SP EA NOT_NAMED 1910-03-07 09:00:00 NR -39.5756 145.113 main 103 75 __________P___ -1 -39.5756 145.113 7 20 104
1910062S16128 1910 12 SP EA NOT_NAMED 1910-03-07 12:00:00 NR -39.8000 146.400 main 77 77 __________O___ -1 -39.8000 146.400 7 19 101
1910062S16128 1910 12 SP EA NOT_NAMED 1910-03-07 15:00:00 NR -39.9608 147.588 main 92 81 __________P___ -1 -39.9608 147.588 7 18 99
1910062S16128 1910 12 SP EA NOT_NAMED 1910-03-07 18:00:00 NR -40.0711 148.679 main 92 92 __________P___ -1 -40.0711 148.679 7 16 97
1910062S16128 1910 12 SP EA NOT_NAMED 1910-03-07 21:00:00 NR -40.1462 149.706 main 148 147 __________P___ -1 -40.1462 149.706 7 15 95
1910062S16128 1910 12 SP EA NOT_NAMED 1910-03-08 00:00:00 NR -40.2000 150.700 main 213 __________O___ -1 -40.2000 150.700 7 15 94

About IBTrACS Database

This database is a web-friendly format of International Best Track Archive for Climate Stewardship (IBTrACS), a global best track data archive curated by NOAA dating back to 1842.

Updated: 2021-12-03